KOKK

Kokomo Municipal Airport

Kokomo, Indiana, USA
METAR KOKK 160556Z AUTO 18007KT 7SM BKN007 BKN010 OVC039 22/21 A2997 RMK AO2 RAE38 SLP144 P0000 60058 T02170211 10217 20206 58005
Observed Flight Rules
Aug-16 @ 05:56 UTC (20 minutes ago) Instrument Flight Rules
Wind Visibility Clouds
180° at 7 knots 7 miles
  • Broken at 700' AGL
  • Broken at 1,000' AGL
  • Overcast at 3,900' AGL
Temperatures Readings Precipitation
Current 22°C / 72°F
Dewpoint 21°C / 70°F
Humidity 94%
Altimeter 29.97" Hg
Pressure 1014.4 hPa
Elevation 253
Current Rain 0.005
METAR KOKK 160556Z AUTO 18007KT 7SM BKN007 BKN010 OVC039 22/21 A2997 RMK AO2 RAE38 SLP144 P0000 60058 T02170211 10217 20206 58005
Observed Flight Rules
Aug-16 @ 05:56 UTC
(20 minutes ago)
IFR
Wind Visibility
180° at 7 knots 7 miles
Clouds
  • Broken at 700' AGL
  • Broken at 1,000' AGL
  • Overcast at 3,900' AGL
Temperature Dewpoint
22°C / 72°F 21°C / 70°F
Humidity Altimeter Pressure
94% 29.97" Hg 1014.4 hPa
Current Rain
0.005